Time;durP1;ratioP1;P1;durP2;ratioP2;P2;SDS_P1;SDS_P2;PMS_P1;PMS_P2;Temp;Humidity;BMP_temperature;BMP_pressure;BME280_temperature;BME280_humidity;BME280_pressure;Samples;Min_cycle;Max_cycle;Signal;HPM_P1;HPM_P2
2024/01/31 00:01:37;;;;;;;50.15;31.73;;;2.20;70.80;;;;;;5054942;28;20115;-65
2024/01/31 00:04:04;;;;;;;50.22;31.88;;;2.20;70.80;;;;;;5054222;28;20040;-64
2024/01/31 00:06:30;;;;;;;52.50;33.78;;;2.20;71.20;;;;;;5054716;28;20021;-65
2024/01/31 00:08:57;;;;;;;47.28;30.38;;;2.10;69.90;;;;;;5053796;28;20391;-65
2024/01/31 00:11:25;;;;;;;43.78;29.65;;;2.10;71.10;;;;;;5054563;28;20313;-63
2024/01/31 00:13:51;;;;;;;41.72;27.58;;;2.10;71.60;;;;;;5053682;28;20036;-65
2024/01/31 00:16:17;;;;;;;36.92;25.90;;;2.10;72.40;;;;;;5054446;28;20025;-67
2024/01/31 00:18:43;;;;;;;38.22;26.55;;;2.10;71.40;;;;;;5054560;28;20017;-65
2024/01/31 00:21:09;;;;;;;39.92;26.92;;;2.00;70.80;;;;;;5054446;28;20090;-64
2024/01/31 00:23:34;;;;;;;41.30;27.33;;;2.10;72.50;;;;;;5054313;28;20383;-65
2024/01/31 00:26:00;;;;;;;41.60;28.08;;;2.00;72.40;;;;;;5054353;28;20021;-65
2024/01/31 00:28:26;;;;;;;40.92;28.45;;;2.00;71.70;;;;;;5054236;28;20443;-64
2024/01/31 00:30:51;;;;;;;64.35;37.78;;;2.00;71.20;;;;;;5052926;28;20021;-66
2024/01/31 00:33:17;;;;;;;52.72;35.00;;;2.00;70.80;;;;;;5054073;28;20032;-63
2024/01/31 00:35:43;;;;;;;48.13;31.48;;;1.90;71.80;;;;;;5054046;28;20016;-63
2024/01/31 00:38:09;;;;;;;49.55;31.17;;;1.80;73.30;;;;;;5052849;28;20033;-65
2024/01/31 00:40:34;;;;;;;52.78;33.13;;;1.80;74.20;;;;;;5053977;28;20021;-63
2024/01/31 00:43:00;;;;;;;45.90;31.23;;;1.80;72.40;;;;;;5053495;28;20057;-64
2024/01/31 00:45:27;;;;;;;51.40;33.10;;;1.80;72.20;;;;;;5054064;28;20025;-65
2024/01/31 00:47:53;;;;;;;52.38;32.88;;;1.80;71.80;;;;;;5053893;28;20399;-65
2024/01/31 00:50:19;;;;;;;53.63;33.45;;;1.80;72.40;;;;;;5053784;28;20028;-63
2024/01/31 00:52:45;;;;;;;47.17;32.08;;;1.80;72.20;;;;;;5053758;28;20025;-63
2024/01/31 00:55:10;;;;;;;48.83;33.25;;;1.80;71.80;;;;;;5053730;28;20025;-66
2024/01/31 00:57:36;;;;;;;46.42;30.77;;;1.70;72.40;;;;;;5053681;28;20023;-66
2024/01/31 01:00:08;;;;;;;52.05;33.55;;;1.70;71.80;;;;;;5053671;28;20422;-65
2024/01/31 01:02:40;;;;;;;57.03;36.80;;;1.60;70.70;;;;;;5053420;28;20040;-66
2024/01/31 01:05:07;;;;;;;49.25;32.38;;;1.60;70.50;;;;;;5053410;28;20499;-63
2024/01/31 01:07:33;;;;;;;45.50;31.50;;;1.60;72.00;;;;;;5053685;28;20383;-65
2024/01/31 01:09:58;;;;;;;43.72;29.50;;;1.60;72.00;;;;;;5053508;28;20075;-66
2024/01/31 01:12:24;;;;;;;42.53;28.95;;;1.60;71.90;;;;;;5053430;28;20028;-66
2024/01/31 01:14:50;;;;;;;42.30;29.08;;;1.50;70.80;;;;;;5052214;28;20032;-64
2024/01/31 01:17:15;;;;;;;39.15;27.15;;;1.50;71.00;;;;;;5053237;28;20096;-66
2024/01/31 01:19:41;;;;;;;38.17;26.20;;;1.50;71.80;;;;;;5053445;28;20479;-65
2024/01/31 01:22:07;;;;;;;35.80;24.35;;;1.50;71.40;;;;;;5053295;28;20029;-63
2024/01/31 01:24:32;;;;;;;36.42;24.05;;;1.50;71.50;;;;;;5053291;28;20029;-63
2024/01/31 01:26:58;;;;;;;34.92;24.75;;;1.50;72.00;;;;;;5053363;28;20108;-63
2024/01/31 01:29:24;;;;;;;32.95;22.05;;;1.50;72.70;;;;;;5052992;28;20017;-64
2024/01/31 01:31:49;;;;;;;31.27;22.63;;;1.50;72.40;;;;;;5053521;28;20021;-64
2024/01/31 01:34:15;;;;;;;26.40;19.92;;;1.40;73.20;;;;;;5051901;28;20386;-64
2024/01/31 01:36:41;;;;;;;28.17;20.25;;;1.40;73.30;;;;;;5053098;28;20025;-66
2024/01/31 01:39:07;;;;;;;28.05;19.23;;;1.40;73.70;;;;;;5053105;28;20361;-64
2024/01/31 01:41:32;;;;;;;29.63;20.38;;;1.40;74.20;;;;;;5053091;28;20021;-64
2024/01/31 01:43:58;;;;;;;52.65;34.85;;;1.30;75.00;;;;;;5052730;28;20143;-66
2024/01/31 01:46:25;;;;;;;58.50;35.90;;;1.30;77.10;;;;;;5053177;28;20021;-66
2024/01/31 01:48:51;;;;;;;47.10;29.15;;;1.20;78.60;;;;;;5053087;28;20056;-64
2024/01/31 01:51:19;;;;;;;45.28;29.65;;;1.10;79.80;;;;;;5052965;28;20475;-64
2024/01/31 01:53:46;;;;;;;42.30;28.05;;;1.00;79.70;;;;;;5053008;28;20071;-65
2024/01/31 01:56:14;;;;;;;36.45;24.10;;;1.10;78.80;;;;;;5056966;28;20490;-66
2024/01/31 01:58:41;;;;;;;41.45;25.60;;;1.10;78.20;;;;;;5056938;28;20052;-63
2024/01/31 02:01:09;;;;;;;38.10;24.00;;;1.10;78.40;;;;;;5057173;28;20055;-63
2024/01/31 02:03:35;;;;;;;34.35;22.40;;;1.10;79.10;;;;;;5056952;28;20115;-65
2024/01/31 02:06:01;;;;;;;33.65;23.30;;;1.10;78.50;;;;;;5056972;28;20472;-64
2024/01/31 02:08:28;;;;;;;32.33;21.88;;;1.10;78.50;;;;;;5056907;28;20040;-64
2024/01/31 02:10:54;;;;;;;29.70;21.17;;;1.10;77.10;;;;;;5056953;28;20384;-66
2024/01/31 02:13:20;;;;;;;33.00;20.92;;;1.10;75.20;;;;;;5055367;28;20376;-65
2024/01/31 02:15:56;;;;;;;30.20;19.38;;;1.10;75.20;;;;;;5056661;28;20032;-63
2024/01/31 02:18:25;;;;;;;27.95;18.88;;;1.00;75.40;;;;;;5055389;28;20021;-62
2024/01/31 02:20:51;;;;;;;30.48;19.60;;;1.00;74.60;;;;;;5056746;28;20052;-66
2024/01/31 02:23:17;;;;;;;25.52;17.30;;;1.00;74.70;;;;;;5056757;28;20057;-63
2024/01/31 02:25:44;;;;;;;26.00;16.77;;;0.90;76.20;;;;;;5056640;28;20017;-66
2024/01/31 02:28:10;;;;;;;23.05;16.20;;;0.90;76.30;;;;;;5056451;28;20028;-64
2024/01/31 02:30:35;;;;;;;24.77;17.35;;;0.80;76.20;;;;;;5056513;28;20021;-64
2024/01/31 02:33:01;;;;;;;22.92;15.63;;;0.90;75.20;;;;;;5055178;28;20032;-65
2024/01/31 02:35:27;;;;;;;22.92;16.23;;;0.90;74.30;;;;;;5056515;28;20521;-63
2024/01/31 02:37:53;;;;;;;24.60;17.55;;;0.80;74.70;;;;;;5056673;28;20021;-64
2024/01/31 02:40:19;;;;;;;26.05;17.27;;;0.80;74.60;;;;;;5056346;28;20370;-64
2024/01/31 02:42:45;;;;;;;27.90;18.98;;;0.80;74.90;;;;;;5056117;28;20033;-66
2024/01/31 02:45:11;;;;;;;25.85;17.83;;;0.80;75.00;;;;;;5056150;28;20044;-65
2024/01/31 02:47:38;;;;;;;26.42;18.13;;;0.80;75.60;;;;;;5056257;28;20017;-63
2024/01/31 02:50:04;;;;;;;27.00;17.77;;;0.70;75.90;;;;;;5054913;28;20112;-64
2024/01/31 02:52:30;;;;;;;26.50;17.27;;;0.70;76.00;;;;;;5056013;28;20104;-67
2024/01/31 02:54:58;;;;;;;28.88;18.25;;;0.70;76.20;;;;;;5054775;28;20017;-64
2024/01/31 02:57:26;;;;;;;27.65;17.85;;;0.60;76.60;;;;;;5055898;28;20036;-66
2024/01/31 02:59:52;;;;;;;25.58;17.23;;;0.60;76.70;;;;;;5055897;28;20017;-65
2024/01/31 03:02:18;;;;;;;32.60;21.17;;;0.60;76.70;;;;;;5055884;28;20498;-63
2024/01/31 03:04:44;;;;;;;25.05;17.40;;;0.70;76.80;;;;;;5055718;28;20045;-63
2024/01/31 03:07:10;;;;;;;20.95;15.38;;;0.60;77.80;;;;;;5055557;28;20017;-66
2024/01/31 03:09:37;;;;;;;21.48;15.13;;;0.60;78.60;;;;;;5055881;28;20379;-65
2024/01/31 03:12:06;;;;;;;39.45;24.45;;;0.60;77.40;;;;;;5054354;28;20025;-66
2024/01/31 03:14:32;;;;;;;32.05;21.50;;;0.60;78.30;;;;;;5055715;28;20021;-63
2024/01/31 03:16:58;;;;;;;27.25;19.58;;;0.50;80.40;;;;;;5055673;28;20036;-64
2024/01/31 03:19:25;;;;;;;53.53;35.47;;;0.50;80.30;;;;;;5055555;28;20383;-66
2024/01/31 03:21:52;;;;;;;36.67;24.10;;;0.50;82.50;;;;;;5055477;28;20147;-63
2024/01/31 03:24:18;;;;;;;42.03;26.42;;;0.40;83.10;;;;;;5055428;28;20116;-66
2024/01/31 03:26:43;;;;;;;33.83;22.77;;;0.40;82.90;;;;;;5055282;28;20151;-63
2024/01/31 03:29:09;;;;;;;33.55;22.92;;;0.40;83.10;;;;;;5055367;28;20075;-67
2024/01/31 03:31:35;;;;;;;50.47;33.45;;;0.40;83.20;;;;;;5055442;28;20048;-63
2024/01/31 03:34:00;;;;;;;39.58;26.30;;;0.40;83.30;;;;;;5055328;28;20021;-65
2024/01/31 03:36:26;;;;;;;31.02;22.30;;;0.40;84.10;;;;;;5055248;28;20025;-66
2024/01/31 03:38:54;;;;;;;27.98;20.73;;;0.40;84.90;;;;;;5055174;28;20025;-66
2024/01/31 03:41:20;;;;;;;31.20;21.90;;;0.40;85.40;;;;;;5054066;28;20029;-65
2024/01/31 03:43:45;;;;;;;29.42;20.58;;;0.40;84.40;;;;;;5055062;28;20040;-65
2024/01/31 03:46:12;;;;;;;32.65;22.10;;;0.40;81.80;;;;;;5055116;28;20440;-64
2024/01/31 03:48:37;;;;;;;27.48;18.63;;;0.40;79.00;;;;;;5055078;28;20127;-65
2024/01/31 03:51:03;;;;;;;23.98;17.02;;;0.40;79.50;;;;;;5055069;28;20047;-63
2024/01/31 03:53:29;;;;;;;20.70;16.02;;;0.40;76.90;;;;;;5054854;28;20071;-63
2024/01/31 03:55:55;;;;;;;23.00;15.90;;;0.30;76.50;;;;;;5054717;28;20021;-63
2024/01/31 03:58:21;;;;;;;21.08;16.15;;;0.30;76.50;;;;;;5054875;28;20029;-65
2024/01/31 04:00:47;;;;;;;22.48;15.48;;;0.20;77.00;;;;;;5054741;28;20096;-64
2024/01/31 04:03:12;;;;;;;19.83;14.38;;;0.10;77.60;;;;;;5054445;28;20560;-65
2024/01/31 04:05:38;;;;;;;21.23;15.15;;;0.10;78.40;;;;;;5053487;28;20032;-65
2024/01/31 04:08:05;;;;;;;23.15;15.68;;;0.10;78.10;;;;;;5054692;28;20021;-63
2024/01/31 04:10:30;;;;;;;18.33;13.88;;;0.10;77.60;;;;;;5054393;28;20021;-64
2024/01/31 04:12:56;;;;;;;18.45;13.20;;;0.10;78.50;;;;;;5054720;28;20029;-66
2024/01/31 04:15:21;;;;;;;18.23;12.90;;;0.00;78.70;;;;;;5054483;28;20426;-63
2024/01/31 04:17:47;;;;;;;16.23;11.45;;;0.00;78.80;;;;;;5053632;28;20025;-62
2024/01/31 04:20:14;;;;;;;16.95;11.38;;;0.00;79.70;;;;;;5054549;28;20029;-66
2024/01/31 04:22:40;;;;;;;15.30;10.68;;;0.00;79.60;;;;;;5054400;28;20044;-67
2024/01/31 04:25:06;;;;;;;20.55;14.10;;;0.00;79.40;;;;;;5054133;28;20104;-63
2024/01/31 04:27:32;;;;;;;21.58;13.43;;;0.00;79.90;;;;;;5053026;28;20017;-62
2024/01/31 04:29:58;;;;;;;24.98;15.68;;;0.00;80.80;;;;;;5054300;28;20107;-62
2024/01/31 04:32:24;;;;;;;24.88;16.55;;;0.00;80.60;;;;;;5052886;28;20025;-66
2024/01/31 04:34:51;;;;;;;27.20;16.75;;;0.00;80.60;;;;;;5054184;28;20067;-65
2024/01/31 04:37:17;;;;;;;23.08;14.63;;;0.10;79.70;;;;;;5054189;28;20052;-63
2024/01/31 04:39:43;;;;;;;21.75;14.20;;;0.00;79.70;;;;;;5052571;28;20387;-66
2024/01/31 04:42:09;;;;;;;22.42;14.25;;;0.00;80.80;;;;;;5054082;28;20116;-66
2024/01/31 04:44:35;;;;;;;20.50;14.20;;;0.00;80.20;;;;;;5053938;28;20450;-63
2024/01/31 04:47:02;;;;;;;24.30;17.40;;;-0.10;79.80;;;;;;5053952;28;20024;-63
2024/01/31 04:49:27;;;;;;;26.30;16.90;;;-0.10;77.50;;;;;;5053871;28;20036;-62
2024/01/31 04:51:53;;;;;;;19.73;12.48;;;-0.20;78.20;;;;;;5052651;28;20029;-64
2024/01/31 04:54:19;;;;;;;19.75;13.88;;;-0.20;79.20;;;;;;5052405;28;20029;-66
2024/01/31 04:56:45;;;;;;;20.17;12.90;;;-0.20;78.60;;;;;;5053640;28;20024;-65
2024/01/31 04:59:11;;;;;;;17.38;12.05;;;-0.30;79.00;;;;;;5053824;28;20025;-66
2024/01/31 05:01:37;;;;;;;20.45;14.60;;;-0.30;79.10;;;;;;5053796;28;20114;-64
2024/01/31 05:04:03;;;;;;;30.75;21.63;;;-0.30;79.00;;;;;;5052059;28;20056;-64
2024/01/31 05:06:28;;;;;;;25.35;18.00;;;-0.30;80.00;;;;;;5053620;28;20029;-65
2024/01/31 05:08:54;;;;;;;23.35;15.82;;;-0.50;82.10;;;;;;5053454;28;20394;-64
2024/01/31 05:11:20;;;;;;;24.45;16.17;;;-0.40;82.30;;;;;;5053466;28;20032;-66
2024/01/31 05:13:46;;;;;;;21.10;15.68;;;-0.40;81.40;;;;;;5053498;28;20096;-62
2024/01/31 05:16:11;;;;;;;25.52;17.17;;;-0.30;80.80;;;;;;5053362;28;20025;-65
2024/01/31 05:18:37;;;;;;;20.30;14.98;;;-0.30;80.50;;;;;;5053411;28;20038;-65
2024/01/31 05:21:03;;;;;;;24.85;16.45;;;-0.30;80.50;;;;;;5053397;28;20070;-66
2024/01/31 05:23:29;;;;;;;24.25;16.77;;;-0.30;81.10;;;;;;5053654;28;20025;-64
2024/01/31 05:25:54;;;;;;;27.02;17.17;;;-0.30;80.90;;;;;;5053318;28;20468;-66
2024/01/31 05:28:20;;;;;;;20.80;15.18;;;-0.30;81.10;;;;;;5053174;28;20017;-65
2024/01/31 05:30:47;;;;;;;23.05;14.68;;;-0.30;78.90;;;;;;5053300;28;20028;-67
2024/01/31 05:33:13;;;;;;;25.05;16.20;;;-0.30;78.40;;;;;;5053189;28;20126;-66
2024/01/31 05:35:39;;;;;;;19.20;13.82;;;-0.30;78.80;;;;;;5053141;28;20086;-64
2024/01/31 05:38:05;;;;;;;22.02;15.48;;;-0.40;80.20;;;;;;5053011;28;20482;-66
2024/01/31 05:40:32;;;;;;;42.22;23.88;;;-0.40;80.80;;;;;;5053211;28;20029;-66
2024/01/31 05:42:58;;;;;;;27.08;18.63;;;-0.50;82.10;;;;;;5052905;28;20029;-64
2024/01/31 05:45:24;;;;;;;35.65;23.45;;;-0.50;82.60;;;;;;5053061;28;20028;-65
2024/01/31 05:47:50;;;;;;;32.42;21.65;;;-0.50;82.50;;;;;;5053112;28;20472;-63
2024/01/31 05:50:16;;;;;;;70.03;37.10;;;-0.50;81.60;;;;;;5052947;28;20020;-63
2024/01/31 05:52:41;;;;;;;53.67;31.52;;;-0.40;83.10;;;;;;5052773;28;20087;-66
2024/01/31 05:55:07;;;;;;;50.33;31.08;;;-0.40;81.30;;;;;;5051649;28;20021;-64
2024/01/31 05:57:33;;;;;;;45.20;28.55;;;-0.40;80.70;;;;;;5052911;28;20060;-63
2024/01/31 05:59:59;;;;;;;44.28;26.95;;;-0.40;81.60;;;;;;5051540;28;20120;-63
2024/01/31 06:02:25;;;;;;;39.40;23.23;;;-0.40;81.80;;;;;;5053071;28;20099;-65
2024/01/31 06:04:50;;;;;;;38.15;22.35;;;-0.50;82.00;;;;;;5052743;28;20055;-66
2024/01/31 06:07:16;;;;;;;33.95;21.75;;;-0.50;80.70;;;;;;5051847;28;20017;-64
2024/01/31 06:09:43;;;;;;;31.92;21.70;;;-0.50;80.00;;;;;;5052881;28;20028;-63
2024/01/31 06:12:09;;;;;;;37.80;23.67;;;-0.40;80.50;;;;;;5051313;28;20033;-65
2024/01/31 06:14:37;;;;;;;48.50;30.52;;;-0.50;80.70;;;;;;5052731;28;20033;-63
2024/01/31 06:17:03;;;;;;;39.38;25.48;;;-0.60;81.70;;;;;;5052604;28;20071;-66
2024/01/31 06:19:29;;;;;;;45.53;27.48;;;-0.60;82.70;;;;;;5052582;28;20029;-64
2024/01/31 06:21:55;;;;;;;42.70;27.63;;;-0.60;83.40;;;;;;5052552;28;20060;-66
2024/01/31 06:24:21;;;;;;;127.65;73.38;;;-0.60;83.30;;;;;;5051364;28;20496;-63
2024/01/31 06:26:47;;;;;;;245.32;146.38;;;-0.50;83.90;;;;;;5052650;28;20044;-64
2024/01/31 06:29:18;;;;;;;251.40;150.40;;;-0.60;85.90;;;;;;5051244;28;20104;-65
2024/01/31 06:31:48;;;;;;;208.10;128.23;;;-0.70;87.10;;;;;;5052617;28;20028;-64
2024/01/31 06:34:14;;;;;;;188.02;120.82;;;-0.80;88.40;;;;;;5052413;28;20078;-65
2024/01/31 06:36:40;;;;;;;174.73;108.22;;;-0.80;89.30;;;;;;5052442;28;20091;-63
2024/01/31 06:39:06;;;;;;;190.80;124.15;;;-0.80;89.30;;;;;;5051178;28;20467;-65
2024/01/31 06:41:33;;;;;;;166.70;111.35;;;-0.90;90.00;;;;;;5055312;28;20021;-64
2024/01/31 06:43:59;;;;;;;145.60;91.93;;;-1.00;90.50;;;;;;5055839;28;20493;-66
2024/01/31 06:46:24;;;;;;;137.00;86.43;;;-1.00;90.50;;;;;;5056172;28;20017;-64
2024/01/31 06:48:50;;;;;;;131.00;82.15;;;-0.90;90.50;;;;;;5055307;28;20028;-66
2024/01/31 06:51:16;;;;;;;105.97;66.85;;;-0.80;90.20;;;;;;5055682;28;20079;-65
2024/01/31 06:53:45;;;;;;;92.45;60.22;;;-0.70;89.60;;;;;;5051194;28;20380;-64
2024/01/31 06:56:16;;;;;;;81.07;53.30;;;-0.60;88.80;;;;;;5038868;28;20114;-67
2024/01/31 06:58:45;;;;;;;74.00;48.15;;;-0.50;86.90;;;;;;5055970;28;20032;-63
2024/01/31 07:01:14;;;;;;;60.15;42.78;;;-0.40;84.20;;;;;;5047952;28;20041;-66
2024/01/31 07:03:40;;;;;;;52.13;35.80;;;-0.30;82.20;;;;;;5044652;28;20040;-69
2024/01/31 07:06:06;;;;;;;48.97;33.03;;;-0.20;80.80;;;;;;5041803;28;20026;-66
2024/01/31 07:08:32;;;;;;;44.97;31.27;;;-0.20;80.60;;;;;;5050497;28;20032;-67
2024/01/31 07:10:57;;;;;;;42.45;28.65;;;-0.20;80.70;;;;;;5054505;28;20032;-67
2024/01/31 07:13:23;;;;;;;35.60;25.05;;;-0.20;80.60;;;;;;5032029;28;20037;-67
2024/01/31 07:15:49;;;;;;;37.97;25.63;;;-0.20;80.50;;;;;;5036626;28;20476;-66
2024/01/31 07:18:15;;;;;;;62.17;41.40;;;-0.10;80.00;;;;;;5049865;28;20036;-66
2024/01/31 07:20:40;;;;;;;56.15;37.10;;;-0.10;81.60;;;;;;5052765;28;20025;-67
2024/01/31 07:23:06;;;;;;;47.55;32.17;;;-0.20;84.00;;;;;;5052104;28;20028;-68
2024/01/31 07:25:32;;;;;;;52.55;35.63;;;-0.20;84.10;;;;;;5049091;28;20025;-67
2024/01/31 07:27:59;;;;;;;60.10;39.50;;;-0.10;84.00;;;;;;5054852;28;20040;-66
2024/01/31 07:30:24;;;;;;;46.42;32.80;;;0.00;82.80;;;;;;5054907;28;20487;-66
2024/01/31 07:32:50;;;;;;;44.70;31.02;;;0.10;82.30;;;;;;5054986;28;20047;-65
2024/01/31 07:35:16;;;;;;;98.97;63.20;;;0.20;81.90;;;;;;5042169;28;20087;-69
2024/01/31 07:37:42;;;;;;;72.85;49.45;;;0.30;82.00;;;;;;5036395;28;20068;-72
2024/01/31 07:40:09;;;;;;;60.10;41.28;;;0.20;83.50;;;;;;5041871;28;20094;-68
2024/01/31 07:42:36;;;;;;;108.60;65.05;;;0.60;83.50;;;;;;5049408;28;20558;-69
2024/01/31 07:45:02;;;;;;;87.35;55.70;;;2.20;79.40;;;;;;5037839;28;20044;-67
2024/01/31 07:47:29;;;;;;;96.60;66.82;;;5.20;60.30;;;;;;5036070;28;20037;-69
2024/01/31 07:49:55;;;;;;;115.18;75.10;;;8.00;48.40;;;;;;5035126;28;20124;-68
2024/01/31 07:52:21;;;;;;;124.22;88.32;;;10.20;42.50;;;;;;5033422;28;20025;-66
2024/01/31 07:54:47;;;;;;;184.50;134.88;;;12.00;37.90;;;;;;5041892;28;20016;-67
2024/01/31 07:57:13;;;;;;;167.52;122.15;;;13.20;32.70;;;;;;5051177;28;20395;-68
2024/01/31 07:59:38;;;;;;;162.57;121.80;;;13.30;33.10;;;;;;5051348;28;20029;-68
2024/01/31 08:02:04;;;;;;;152.57;117.25;;;13.50;31.70;;;;;;5042288;28;20032;-67
2024/01/31 08:04:30;;;;;;;143.27;111.35;;;13.40;31.50;;;;;;5049854;28;20048;-67
2024/01/31 08:06:55;;;;;;;118.22;93.97;;;13.60;32.10;;;;;;5045782;28;20506;-70
2024/01/31 08:09:25;;;;;;;110.68;89.45;;;14.20;32.10;;;;;;5032283;28;20053;-69
2024/01/31 08:11:50;;;;;;;88.28;71.72;;;15.40;30.90;;;;;;5033828;28;20028;-67
2024/01/31 08:14:16;;;;;;;81.18;66.25;;;16.30;28.70;;;;;;5042409;28;20384;-68
2024/01/31 08:16:42;;;;;;;80.57;64.75;;;16.60;28.80;;;;;;5049351;28;20029;-69
2024/01/31 08:19:09;;;;;;;68.82;57.55;;;17.20;28.20;;;;;;5041284;28;20048;-69
2024/01/31 08:21:36;;;;;;;63.45;54.60;;;17.90;27.80;;;;;;5040397;28;20029;-69
2024/01/31 08:24:02;;;;;;;74.60;59.55;;;18.60;27.00;;;;;;5049750;28;20055;-69
2024/01/31 08:26:27;;;;;;;79.90;67.20;;;18.60;26.20;;;;;;5033840;28;20021;-68
2024/01/31 08:28:54;;;;;;;66.00;56.15;;;18.10;26.40;;;;;;5035696;28;20025;-68
2024/01/31 08:31:20;;;;;;;65.72;56.28;;;18.30;26.90;;;;;;5044166;28;20057;-68
2024/01/31 08:33:45;;;;;;;72.30;59.90;;;18.90;26.70;;;;;;5036274;28;20051;-69
2024/01/31 08:36:11;;;;;;;72.25;62.17;;;19.30;25.20;;;;;;5043457;28;20091;-65
2024/01/31 08:38:39;;;;;;;67.15;57.45;;;19.30;25.80;;;;;;5035727;28;20025;-66
2024/01/31 08:41:05;;;;;;;67.55;56.65;;;19.80;25.80;;;;;;5029477;28;20041;-66
2024/01/31 08:43:31;;;;;;;65.80;56.85;;;20.30;25.40;;;;;;5036572;28;20380;-66
2024/01/31 08:46:00;;;;;;;69.25;57.67;;;20.60;24.80;;;;;;5039476;28;20024;-68
2024/01/31 08:48:25;;;;;;;61.60;55.00;;;20.80;24.90;;;;;;5043138;28;20033;-66
2024/01/31 08:50:51;;;;;;;68.22;60.45;;;21.00;25.30;;;;;;5030587;28;20124;-65
2024/01/31 08:53:16;;;;;;;68.22;57.15;;;20.90;24.90;;;;;;5030884;28;20022;-70
2024/01/31 08:55:42;;;;;;;65.28;58.15;;;21.00;24.70;;;;;;5030389;28;20033;-66
2024/01/31 08:58:08;;;;;;;64.75;57.45;;;21.20;24.80;;;;;;5028434;28;20025;-68
2024/01/31 09:00:34;;;;;;;57.67;51.35;;;21.00;24.40;;;;;;5040764;28;20021;-68
2024/01/31 09:03:00;;;;;;;50.72;45.33;;;20.80;24.50;;;;;;5049660;28;20021;-68
2024/01/31 09:05:25;;;;;;;45.55;40.75;;;20.40;24.70;;;;;;5032991;28;20073;-68
2024/01/31 09:07:52;;;;;;;42.58;37.90;;;19.60;25.10;;;;;;5037421;28;20424;-67
2024/01/31 09:10:18;;;;;;;41.20;36.88;;;19.10;25.50;;;;;;5044117;28;20052;-67
2024/01/31 09:12:44;;;;;;;42.75;38.15;;;19.00;26.10;;;;;;5032078;28;20021;-70
2024/01/31 09:15:10;;;;;;;51.88;43.83;;;18.70;26.20;;;;;;5033274;28;20018;-67
2024/01/31 09:17:37;;;;;;;54.83;48.60;;;18.40;26.10;;;;;;5032342;28;20131;-69
2024/01/31 09:20:02;;;;;;;54.72;48.85;;;17.90;26.50;;;;;;5032085;28;20029;-69
2024/01/31 09:22:28;;;;;;;60.22;51.97;;;17.20;27.70;;;;;;5040800;28;20044;-68
2024/01/31 09:24:54;;;;;;;54.35;48.45;;;16.70;27.70;;;;;;5052023;28;20029;-68
2024/01/31 09:27:20;;;;;;;49.90;44.47;;;16.30;28.60;;;;;;5050930;28;20024;-69
2024/01/31 09:29:46;;;;;;;48.03;42.92;;;15.90;29.10;;;;;;5039458;28;20472;-68
2024/01/31 09:32:14;;;;;;;39.72;35.53;;;15.80;29.10;;;;;;5052417;28;20060;-68
2024/01/31 09:34:41;;;;;;;34.95;31.23;;;15.80;29.10;;;;;;5033970;28;20031;-66
2024/01/31 09:37:07;;;;;;;30.10;26.85;;;15.80;29.10;;;;;;5033560;28;20025;-62
2024/01/31 09:39:33;;;;;;;30.60;27.27;;;15.80;29.30;;;;;;5047083;28;20383;-65
2024/01/31 09:41:59;;;;;;;29.30;26.23;;;15.80;30.50;;;;;;5041788;28;20041;-68
2024/01/31 09:44:25;;;;;;;30.33;26.75;;;15.80;29.30;;;;;;5038112;28;20095;-65
2024/01/31 09:46:55;;;;;;;29.80;26.88;;;15.80;29.60;;;;;;5029697;28;20472;-66
2024/01/31 09:49:21;;;;;;;30.25;27.10;;;15.80;29.50;;;;;;5036076;28;20028;-66
2024/01/31 09:51:50;;;;;;;28.55;25.60;;;15.60;29.90;;;;;;5040408;28;20029;-65
2024/01/31 09:54:17;;;;;;;26.10;23.52;;;15.40;30.00;;;;;;5042535;28;20112;-65
2024/01/31 09:56:43;;;;;;;23.05;20.83;;;15.60;30.00;;;;;;5045533;28;20027;-64
2024/01/31 09:59:09;;;;;;;24.40;21.90;;;15.80;29.90;;;;;;5028204;28;20021;-65
2024/01/31 10:01:36;;;;;;;23.15;20.70;;;15.80;30.30;;;;;;5031426;28;20483;-65
2024/01/31 10:04:02;;;;;;;27.27;24.60;;;15.80;30.00;;;;;;5045062;28;20526;-65
2024/01/31 10:06:28;;;;;;;29.05;26.10;;;15.40;32.20;;;;;;5037324;28;20034;-64
2024/01/31 10:08:57;;;;;;;30.20;27.13;;;15.30;31.50;;;;;;5037486;28;20029;-66
2024/01/31 10:11:24;;;;;;;34.58;31.17;;;15.50;31.50;;;;;;5044899;28;20029;-66
2024/01/31 10:13:51;;;;;;;36.50;32.78;;;15.70;31.30;;;;;;5031938;28;20021;-64
2024/01/31 10:16:16;;;;;;;34.58;31.17;;;15.80;30.70;;;;;;5039968;28;20104;-67
2024/01/31 10:18:43;;;;;;;33.45;30.15;;;15.80;30.70;;;;;;5056572;28;20424;-65
2024/01/31 10:21:10;;;;;;;31.05;27.92;;;15.70;30.10;;;;;;5056840;28;20074;-64
2024/01/31 10:23:36;;;;;;;28.83;25.90;;;15.80;29.60;;;;;;5052772;28;20021;-63
2024/01/31 10:26:02;;;;;;;28.27;25.38;;;16.10;29.30;;;;;;5033545;28;20021;-64
2024/01/31 10:29:16;;;;;;;26.90;24.33;;;16.50;28.80;;;;;;5045143;28;20403;-64
2024/01/31 10:31:46;;;;;;;26.83;24.13;;;16.70;27.90;;;;;;5038207;28;20495;-63
2024/01/31 10:34:13;;;;;;;26.77;24.17;;;16.70;28.10;;;;;;5035438;28;20087;-64
2024/01/31 10:36:40;;;;;;;26.63;23.67;;;16.80;27.70;;;;;;5037488;28;20053;-63
2024/01/31 10:39:11;;;;;;;27.73;24.92;;;16.90;27.40;;;;;;5052132;28;20490;-63
2024/01/31 10:41:40;;;;;;;27.10;24.20;;;16.90;27.50;;;;;;5043223;28;20025;-63
2024/01/31 10:44:13;;;;;;;25.70;23.00;;;16.80;27.50;;;;;;5040252;28;20492;-63
2024/01/31 10:46:39;;;;;;;24.90;22.40;;;16.80;27.90;;;;;;5034322;28;20089;-64
2024/01/31 10:49:05;;;;;;;26.63;24.02;;;16.80;27.70;;;;;;5043928;28;20028;-63
2024/01/31 10:51:33;;;;;;;26.77;23.98;;;17.00;28.50;;;;;;5041123;28;20022;-64
2024/01/31 10:54:01;;;;;;;27.05;23.38;;;16.80;27.70;;;;;;5043629;28;20028;-63
2024/01/31 10:56:27;;;;;;;27.08;24.25;;;16.80;27.90;;;;;;5034953;28;20109;-64
2024/01/31 10:58:57;;;;;;;25.65;23.08;;;16.80;27.30;;;;;;5045939;28;20429;-64
2024/01/31 11:01:29;;;;;;;27.52;24.58;;;16.90;27.80;;;;;;5047401;28;20552;-64
2024/01/31 11:03:55;;;;;;;25.50;22.90;;;16.90;26.80;;;;;;5043634;28;20056;-64
2024/01/31 11:06:24;;;;;;;25.35;22.83;;;16.50;28.20;;;;;;5035647;28;20025;-66
2024/01/31 11:08:50;;;;;;;23.73;21.27;;;16.50;27.60;;;;;;5038226;28;20117;-64
2024/01/31 11:11:19;;;;;;;21.33;19.23;;;16.80;27.60;;;;;;5046047;28;20019;-65
2024/01/31 11:13:45;;;;;;;21.05;18.95;;;16.80;27.30;;;;;;5035700;28;20207;-65
2024/01/31 11:16:11;;;;;;;19.50;17.65;;;17.00;26.90;;;;;;5045958;28;20104;-65
2024/01/31 11:18:37;;;;;;;21.17;19.08;;;17.00;26.40;;;;;;5056675;28;20037;-65
2024/01/31 11:21:08;;;;;;;19.20;17.30;;;17.20;26.70;;;;;;5070497;28;20012;-65
2024/01/31 11:23:34;;;;;;;16.60;15.10;;;17.10;26.30;;;;;;5045622;28;20029;-65
2024/01/31 11:26:01;;;;;;;15.57;13.93;;;17.10;25.50;;;;;;5032987;28;20460;-65
2024/01/31 11:28:27;;;;;;;10.40;9.45;;;17.10;27.00;;;;;;5034156;28;20476;-65
2024/01/31 11:30:54;;;;;;;12.25;11.15;;;17.00;25.70;;;;;;5033617;28;20021;-65
2024/01/31 11:33:21;;;;;;;11.27;10.27;;;17.10;25.40;;;;;;5033791;28;20078;-65
2024/01/31 11:35:47;;;;;;;11.68;10.57;;;17.40;24.80;;;;;;5031186;28;20109;-65
2024/01/31 11:38:17;;;;;;;11.05;10.05;;;17.60;25.30;;;;;;5032432;28;20037;-65
2024/01/31 11:40:43;;;;;;;11.27;10.20;;;17.80;24.60;;;;;;5031914;28;20070;-65
2024/01/31 11:43:08;;;;;;;11.05;9.95;;;18.20;24.90;;;;;;5033675;28;20037;-66
2024/01/31 11:45:34;;;;;;;10.00;9.10;;;18.20;24.70;;;;;;5032923;28;20384;-66
2024/01/31 11:48:00;;;;;;;10.20;9.20;;;18.40;24.30;;;;;;5035273;28;20028;-65
2024/01/31 11:50:26;;;;;;;12.23;11.07;;;18.40;24.30;;;;;;5034836;28;20129;-65
2024/01/31 11:52:52;;;;;;;12.85;11.65;;;18.50;24.50;;;;;;5035041;28;20053;-65
2024/01/31 11:55:22;;;;;;;13.85;12.45;;;18.60;23.90;;;;;;5033882;28;20029;-65
2024/01/31 11:57:48;;;;;;;13.02;11.68;;;18.50;24.10;;;;;;5038412;28;20069;-65
2024/01/31 12:00:16;;;;;;;15.38;13.32;;;18.50;24.30;;;;;;5059644;28;20521;-64
2024/01/31 12:02:43;;;;;;;13.60;12.40;;;18.70;24.20;;;;;;5073437;28;20021;-65
2024/01/31 12:05:10;;;;;;;13.63;12.23;;;18.60;23.90;;;;;;5073362;28;20055;-64
2024/01/31 12:07:39;;;;;;;12.75;11.45;;;18.70;24.60;;;;;;5059190;28;20395;-64
2024/01/31 12:10:09;;;;;;;11.70;10.50;;;18.70;24.50;;;;;;5039684;28;20028;-65
2024/01/31 12:12:41;;;;;;;12.38;11.27;;;18.70;23.30;;;;;;5046114;28;20382;-65
2024/01/31 12:15:11;;;;;;;12.70;11.53;;;18.80;23.10;;;;;;5048377;28;20029;-65
2024/01/31 12:17:38;;;;;;;11.70;10.55;;;19.00;23.30;;;;;;5040763;28;20026;-65
2024/01/31 12:20:06;;;;;;;13.70;12.30;;;19.20;23.50;;;;;;5052578;28;20025;-64
2024/01/31 12:22:37;;;;;;;13.52;12.23;;;19.20;23.10;;;;;;5050627;28;20159;-65
2024/01/31 12:25:04;;;;;;;13.88;12.43;;;19.30;23.10;;;;;;5036782;28;20037;-65
2024/01/31 12:27:30;;;;;;;16.27;14.52;;;19.20;22.90;;;;;;5041497;28;20037;-64